createdAt,value
2022-11-28T00:01:40.067Z,157241.81
2022-11-28T00:04:09.176Z,157247.13
2022-11-28T00:06:45.874Z,157233.88
2022-11-28T00:09:15.231Z,157224.59
2022-11-28T00:11:45.323Z,157227.22
2022-11-28T00:14:14.052Z,157215.28
2022-11-28T00:16:42.342Z,157217.94
2022-11-28T00:19:11.706Z,157223.22
2022-11-28T00:21:39.662Z,157231.19
2022-11-28T00:24:08.570Z,157227.22
2022-11-28T00:26:39.774Z,157240.50
2022-11-28T00:29:09.720Z,157252.47
2022-11-28T00:31:43.146Z,157252.47
2022-11-28T00:34:14.039Z,157251.09
2022-11-28T00:36:44.211Z,157241.81
2022-11-28T00:39:13.268Z,157248.44
2022-11-28T00:41:41.054Z,157252.47
2022-11-28T00:44:09.662Z,157252.47
2022-11-28T00:46:37.540Z,157255.09
2022-11-28T00:49:06.055Z,157235.19
2022-11-28T00:51:34.878Z,157227.22
2022-11-28T00:54:05.467Z,157220.59
2022-11-28T00:56:37.765Z,157221.91
2022-11-28T00:59:06.806Z,157220.59
2022-11-28T01:01:41.663Z,157236.50
2022-11-28T01:04:13.093Z,157229.84
2022-11-28T01:06:43.913Z,157225.91
2022-11-28T01:09:21.366Z,157213.94
2022-11-28T01:11:50.993Z,157202.00
2022-11-28T01:14:21.891Z,157196.72
2022-11-28T01:16:49.772Z,157184.78
2022-11-28T01:19:18.433Z,157178.13
2022-11-28T01:21:46.817Z,157158.22
2022-11-28T01:24:15.453Z,157160.88
2022-11-28T01:26:43.695Z,157184.78
2022-11-28T01:29:12.714Z,157178.13
2022-11-28T01:31:40.934Z,157176.81
2022-11-28T01:34:09.175Z,157162.25
2022-11-28T01:36:37.117Z,157150.28
2022-11-28T01:39:06.572Z,157148.97
2022-11-28T01:41:34.794Z,157138.31
2022-11-28T01:44:29.874Z,157148.97
2022-11-28T01:46:57.582Z,157127.75
2022-11-28T01:49:34.050Z,157129.06
2022-11-28T01:52:06.527Z,157138.31
2022-11-28T01:54:36.199Z,157115.78
2022-11-28T01:57:07.258Z,157115.78
2022-11-28T01:59:47.374Z,157134.38
2022-11-28T02:02:30.176Z,157117.09
2022-11-28T02:04:58.977Z,157117.09
2022-11-28T02:07:27.502Z,157109.16
2022-11-28T02:09:56.180Z,157107.84
2022-11-28T02:12:55.312Z,157113.16
2022-11-28T02:15:45.090Z,157119.78
2022-11-28T02:18:34.370Z,157101.22
2022-11-28T02:21:08.583Z,157097.22
2022-11-28T02:24:13.987Z,157089.25
2022-11-28T02:26:54.181Z,157087.94
2022-11-28T02:29:36.945Z,157081.31
2022-11-28T02:32:29.962Z,157080.00
2022-11-28T02:35:10.770Z,157065.41
2022-11-28T02:38:10.018Z,157085.31
2022-11-28T02:40:50.159Z,157076.00
2022-11-28T02:43:37.065Z,157089.25
2022-11-28T02:46:28.422Z,157087.94
2022-11-28T02:49:00.955Z,157094.56
2022-11-28T02:51:36.945Z,157094.56
2022-11-28T02:54:08.861Z,157095.88
2022-11-28T02:56:36.734Z,157085.31
2022-11-28T02:59:05.640Z,157066.72
2022-11-28T03:01:37.348Z,157089.25
2022-11-28T03:05:04.076Z,157074.69
2022-11-28T03:07:50.504Z,157066.72
2022-11-28T03:10:37.660Z,157064.09
2022-11-28T03:13:24.261Z,157066.72
2022-11-28T03:16:16.838Z,157048.16
2022-11-28T03:19:06.889Z,157041.50
2022-11-28T03:21:41.171Z,157038.88
2022-11-28T03:24:20.931Z,157030.94
2022-11-28T03:27:07.828Z,157028.28
2022-11-28T03:29:42.200Z,157040.19
2022-11-28T03:32:21.804Z,157046.81
2022-11-28T03:34:53.109Z,157057.47
2022-11-28T03:37:36.451Z,157050.81
2022-11-28T03:40:08.245Z,157040.19
2022-11-28T03:42:43.011Z,157037.56
2022-11-28T03:45:20.241Z,157011.03
2022-11-28T03:47:53.066Z,157017.66
2022-11-28T03:50:35.577Z,157008.41
2022-11-28T03:53:07.444Z,156997.75
2022-11-28T03:55:46.311Z,156997.75
2022-11-28T03:58:25.302Z,156999.09
2022-11-28T04:00:59.975Z,156980.56
2022-11-28T04:03:52.332Z,156973.91
2022-11-28T04:06:27.302Z,156952.72
2022-11-28T04:09:03.777Z,156944.75
2022-11-28T04:11:40.327Z,156943.41
2022-11-28T04:14:23.556Z,156948.72
2022-11-28T04:16:55.547Z,156957.97
2022-11-28T04:19:42.099Z,156947.41
2022-11-28T04:22:15.504Z,156931.50
2022-11-28T04:24:54.760Z,156918.25
2022-11-28T04:27:27.688Z,156911.59
2022-11-28T04:29:59.184Z,156920.88
2022-11-28T04:32:27.770Z,156931.50
2022-11-28T04:35:03.873Z,156952.72
2022-11-28T04:37:33.244Z,156944.75
2022-11-28T04:40:02.213Z,156950.03
2022-11-28T04:42:40.176Z,156955.34
2022-11-28T04:45:23.022Z,156939.44
2022-11-28T04:47:50.868Z,156928.81
2022-11-28T04:50:19.481Z,156964.59
2022-11-28T04:52:56.097Z,156965.97
2022-11-28T04:55:27.311Z,156952.72
2022-11-28T04:58:17.668Z,156985.81
2022-11-28T05:00:47.864Z,156964.59
2022-11-28T05:03:15.730Z,156963.28
2022-11-28T05:05:47.228Z,156965.97
2022-11-28T05:08:15.536Z,156976.56
2022-11-28T05:10:44.510Z,156967.28
2022-11-28T05:13:12.718Z,156963.28
2022-11-28T05:15:41.351Z,156960.66
2022-11-28T05:18:09.755Z,156960.66
2022-11-28T05:20:39.381Z,156967.28
2022-11-28T05:23:07.240Z,156948.72
2022-11-28T05:25:39.641Z,156947.41
2022-11-28T05:28:07.462Z,156942.09
2022-11-28T05:30:35.971Z,156952.72
2022-11-28T05:33:03.950Z,156938.13
2022-11-28T05:35:34.873Z,156935.44
2022-11-28T05:38:08.192Z,156926.19
2022-11-28T05:40:44.361Z,156926.19
2022-11-28T05:43:12.784Z,156920.88
2022-11-28T05:45:45.072Z,156932.81
2022-11-28T05:48:13.082Z,156938.13
2022-11-28T05:50:42.351Z,156944.75
2022-11-28T05:53:10.731Z,156936.78
2022-11-28T05:55:40.332Z,156924.88
2022-11-28T05:58:08.131Z,156915.56
2022-11-28T06:00:37.226Z,156928.81
2022-11-28T06:03:05.595Z,156911.59
2022-11-28T06:05:42.685Z,156916.94
2022-11-28T06:08:12.891Z,156904.97
2022-11-28T06:10:41.495Z,156890.41
2022-11-28T06:13:09.337Z,156907.63
2022-11-28T06:15:44.690Z,156926.19
2022-11-28T06:18:12.544Z,156923.56
2022-11-28T06:20:42.148Z,156902.34
2022-11-28T06:23:13.241Z,156885.09
2022-11-28T06:25:42.247Z,156890.41
2022-11-28T06:28:10.190Z,156869.19
2022-11-28T06:30:39.068Z,156862.56
2022-11-28T06:33:06.862Z,156882.47
2022-11-28T06:35:35.330Z,156914.25
2022-11-28T06:38:03.226Z,156920.88
2022-11-28T06:40:31.779Z,156906.28
2022-11-28T06:42:59.611Z,156908.94
2022-11-28T06:45:28.125Z,156894.34
2022-11-28T06:47:56.013Z,156881.09
2022-11-28T06:50:24.230Z,156875.81
2022-11-28T06:52:51.621Z,156867.88
2022-11-28T06:55:20.531Z,156865.19
2022-11-28T06:57:48.675Z,156849.31
2022-11-28T07:00:17.608Z,156834.75
2022-11-28T07:02:46.087Z,156836.06
2022-11-28T07:05:16.746Z,156858.56
2022-11-28T07:07:53.800Z,156867.88
2022-11-28T07:10:24.030Z,156883.78
2022-11-28T07:12:55.951Z,156883.78
2022-11-28T07:15:25.405Z,156874.50
2022-11-28T07:17:54.195Z,156873.16
2022-11-28T07:20:22.525Z,156883.78
2022-11-28T07:22:50.504Z,156879.78
2022-11-28T07:25:19.260Z,156883.78
2022-11-28T07:27:47.146Z,156877.16
2022-11-28T07:30:16.071Z,156889.09
2022-11-28T07:32:44.356Z,156865.19
2022-11-28T07:35:12.754Z,156881.09
2022-11-28T07:37:40.617Z,156869.19
2022-11-28T07:40:09.591Z,156881.09
2022-11-28T07:42:37.452Z,156870.53
2022-11-28T07:45:06.157Z,156881.09
2022-11-28T07:47:34.455Z,156885.09
2022-11-28T07:50:03.000Z,156889.09
2022-11-28T07:52:30.906Z,156871.84
2022-11-28T07:54:59.078Z,156871.84
2022-11-28T07:57:26.836Z,156886.41
2022-11-28T07:59:55.250Z,156890.41
2022-11-28T08:02:23.099Z,156871.84
2022-11-28T08:04:55.418Z,156870.53
2022-11-28T08:07:23.307Z,156869.19
2022-11-28T08:09:51.560Z,156867.88
2022-11-28T08:12:19.695Z,156894.34
2022-11-28T08:14:48.032Z,156878.47
2022-11-28T08:17:16.098Z,156912.94
2022-11-28T08:19:44.382Z,156904.97
2022-11-28T08:22:12.458Z,156904.97
2022-11-28T08:24:41.012Z,156915.56
2022-11-28T08:27:09.184Z,156924.88
2022-11-28T08:29:37.734Z,156936.78
2022-11-28T08:32:06.383Z,156912.94
2022-11-28T08:34:35.010Z,156946.09
2022-11-28T08:37:02.611Z,156906.28
2022-11-28T08:39:30.968Z,156948.72
2022-11-28T08:42:00.010Z,156939.44
2022-11-28T08:44:31.212Z,156936.78
2022-11-28T08:46:59.414Z,156948.72
2022-11-28T08:49:28.144Z,156939.44
2022-11-28T08:51:56.430Z,156963.28
2022-11-28T08:54:24.567Z,156959.34
2022-11-28T08:56:52.800Z,156955.34
2022-11-28T08:59:21.600Z,156977.88
2022-11-28T09:01:50.357Z,157024.28
2022-11-28T09:04:19.056Z,157029.59
2022-11-28T09:06:46.673Z,157038.88
2022-11-28T09:09:15.370Z,157040.19
2022-11-28T09:11:43.297Z,157058.78
2022-11-28T09:14:11.731Z,157046.81
2022-11-28T09:16:40.433Z,157069.34
2022-11-28T09:19:11.090Z,157098.56
2022-11-28T09:21:39.024Z,157110.47
2022-11-28T09:24:08.502Z,157098.56
2022-11-28T09:26:36.651Z,157091.94
2022-11-28T09:29:04.839Z,157107.84
2022-11-28T09:31:33.589Z,157125.06
2022-11-28T09:34:04.106Z,157114.47
2022-11-28T09:36:32.853Z,157131.69
2022-11-28T09:39:01.560Z,157121.09
2022-11-28T09:41:33.190Z,157130.38
2022-11-28T09:44:15.150Z,157147.66
2022-11-28T09:46:43.487Z,157159.56
2022-11-28T09:49:20.800Z,157167.50
2022-11-28T09:52:11.059Z,157174.13
2022-11-28T09:54:52.431Z,157187.41
2022-11-28T09:57:44.711Z,157182.09
2022-11-28T10:00:19.366Z,157178.13
2022-11-28T10:03:06.085Z,157184.78
2022-11-28T10:05:53.234Z,157194.03
2022-11-28T10:08:41.850Z,157216.59
2022-11-28T10:11:36.100Z,157255.09
2022-11-28T10:14:41.021Z,157253.78
2022-11-28T10:17:21.144Z,157261.72
2022-11-28T10:19:59.844Z,157292.22
2022-11-28T10:22:48.549Z,157285.59
2022-11-28T10:25:19.971Z,157257.72
2022-11-28T10:27:49.531Z,157297.56
2022-11-28T10:30:34.068Z,157304.19
2022-11-28T10:33:10.477Z,157316.16
2022-11-28T10:35:58.063Z,157302.88
2022-11-28T10:38:28.421Z,157309.50
2022-11-28T10:41:06.959Z,157294.91
2022-11-28T10:43:54.442Z,157313.47
2022-11-28T10:46:26.905Z,157309.50
2022-11-28T10:49:35.143Z,157300.19
2022-11-28T10:52:13.546Z,157297.56
2022-11-28T10:55:14.101Z,157302.88
2022-11-28T10:58:03.452Z,157328.06
2022-11-28T11:00:31.881Z,157305.50
2022-11-28T11:03:02.621Z,157302.88
2022-11-28T11:05:33.403Z,157333.38
2022-11-28T11:08:12.479Z,157338.69
2022-11-28T11:11:22.666Z,157333.38
2022-11-28T11:14:11.781Z,157347.97
2022-11-28T11:16:50.522Z,157325.41
2022-11-28T11:19:39.804Z,157292.22
2022-11-28T11:22:19.447Z,157302.88
2022-11-28T11:25:07.721Z,157308.13
2022-11-28T11:27:38.171Z,157309.50
2022-11-28T11:30:26.006Z,157260.41
2022-11-28T11:32:57.154Z,157298.88
2022-11-28T11:35:30.140Z,157293.53
2022-11-28T11:38:17.481Z,157305.50
2022-11-28T11:40:45.768Z,157271.00
2022-11-28T11:43:31.666Z,157297.56
2022-11-28T11:46:15.764Z,157309.50
2022-11-28T11:48:53.258Z,157324.09
2022-11-28T11:51:37.967Z,157300.19
2022-11-28T11:54:18.143Z,157301.56
2022-11-28T11:56:47.752Z,157309.50
2022-11-28T11:59:19.190Z,157306.81
2022-11-28T12:01:49.800Z,157281.63
2022-11-28T12:04:45.067Z,157252.47
2022-11-28T12:07:39.463Z,157256.41
2022-11-28T12:10:13.034Z,157255.09
2022-11-28T12:12:42.624Z,157213.94
2022-11-28T12:15:45.848Z,157225.91
2022-11-28T12:18:26.137Z,157224.59
2022-11-28T12:21:31.789Z,157244.44
2022-11-28T12:24:08.685Z,157220.59
2022-11-28T12:26:39.939Z,157229.84
2022-11-28T12:29:21.569Z,157225.91
2022-11-28T12:31:59.037Z,157237.81
2022-11-28T12:34:29.549Z,157237.81
2022-11-28T12:37:10.122Z,157236.50
2022-11-28T12:39:56.556Z,157228.53
2022-11-28T12:42:33.455Z,157239.19
2022-11-28T12:45:19.602Z,157239.19
2022-11-28T12:48:03.006Z,157244.44
2022-11-28T12:50:46.137Z,157212.63
2022-11-28T12:53:51.930Z,157239.19
2022-11-28T12:56:42.388Z,157215.28
2022-11-28T12:59:36.623Z,157213.94
2022-11-28T13:02:35.744Z,157235.19
2022-11-28T13:05:30.190Z,157220.59
2022-11-28T13:08:09.283Z,157223.22
2022-11-28T13:11:15.626Z,157202.00
2022-11-28T13:14:09.368Z,157194.03
2022-11-28T13:16:47.505Z,157207.31
2022-11-28T13:19:50.765Z,157192.72
2022-11-28T13:22:23.677Z,157180.78
2022-11-28T13:25:00.835Z,157196.72
2022-11-28T13:27:37.479Z,157192.72
2022-11-28T13:30:23.857Z,157206.00
2022-11-28T13:33:27.977Z,157209.94
2022-11-28T13:35:58.913Z,157194.03
2022-11-28T13:38:36.210Z,157200.69
2022-11-28T13:42:03.414Z,157184.78
2022-11-28T13:44:22.781Z,157196.72
2022-11-28T13:46:57.133Z,157180.78
2022-11-28T13:49:26.980Z,157162.25
2022-11-28T13:52:19.440Z,157182.09
2022-11-28T13:54:50.954Z,157184.78
2022-11-28T13:57:31.635Z,157215.28
2022-11-28T14:00:08.024Z,157194.03
2022-11-28T14:02:54.223Z,157187.41
2022-11-28T14:05:33.152Z,157196.72
2022-11-28T14:08:01.584Z,157219.28
2022-11-28T14:10:56.618Z,157220.59
2022-11-28T14:13:50.076Z,157203.38
2022-11-28T14:16:36.584Z,157203.38
2022-11-28T14:19:16.814Z,157194.03
2022-11-28T14:22:07.132Z,157180.78
2022-11-28T14:24:40.851Z,157182.09
2022-11-28T14:27:18.896Z,157162.25
2022-11-28T14:29:52.267Z,157168.88
2022-11-28T14:32:34.973Z,157162.25
2022-11-28T14:35:05.152Z,157148.97
2022-11-28T14:37:35.719Z,157151.59
2022-11-28T14:40:42.951Z,157148.97
2022-11-28T14:43:24.100Z,157156.91
2022-11-28T14:45:53.183Z,157143.66
2022-11-28T14:48:24.625Z,157143.66
2022-11-28T14:50:59.372Z,157127.75
2022-11-28T14:53:50.854Z,157123.75
2022-11-28T14:56:25.368Z,157129.06
2022-11-28T14:58:57.911Z,157133.00
2022-11-28T15:01:40.117Z,157148.97
2022-11-28T15:04:46.093Z,157134.38
2022-11-28T15:07:36.796Z,157109.16
2022-11-28T15:10:17.327Z,157121.09
2022-11-28T15:12:48.628Z,157125.06
2022-11-28T15:15:18.000Z,157119.78
2022-11-28T15:17:47.256Z,157109.16
2022-11-28T15:20:25.628Z,157107.84
2022-11-28T15:22:54.355Z,157103.84
2022-11-28T15:25:29.442Z,157089.25
2022-11-28T15:28:14.054Z,157093.25
2022-11-28T15:30:47.926Z,157086.63
2022-11-28T15:33:16.422Z,157074.69
2022-11-28T15:36:08.516Z,157091.94
2022-11-28T15:38:36.519Z,157058.78
2022-11-28T15:41:04.931Z,157080.00
2022-11-28T15:43:33.253Z,157050.81
2022-11-28T15:46:01.896Z,157069.34
2022-11-28T15:48:39.286Z,157080.00
2022-11-28T15:51:09.338Z,157065.41
2022-11-28T15:53:46.047Z,157058.78
2022-11-28T15:56:15.813Z,157052.13
2022-11-28T15:58:45.003Z,157050.81
2022-11-28T16:01:21.871Z,157042.88
2022-11-28T16:03:55.338Z,157052.13
2022-11-28T16:06:27.122Z,157037.56
2022-11-28T16:09:00.610Z,157046.81
2022-11-28T16:11:31.159Z,157036.25
2022-11-28T16:14:01.894Z,157036.25
2022-11-28T16:16:32.907Z,157028.28
2022-11-28T16:19:03.735Z,157037.56
2022-11-28T16:21:38.140Z,157028.28
2022-11-28T16:24:18.289Z,157012.34
2022-11-28T16:27:00.188Z,157007.03
2022-11-28T16:29:36.458Z,157000.44
2022-11-28T16:32:27.586Z,156997.75
2022-11-28T16:34:56.213Z,156999.09
2022-11-28T16:37:27.277Z,156996.44
2022-11-28T16:40:14.987Z,157007.03
2022-11-28T16:42:43.610Z,156987.19
2022-11-28T16:45:31.870Z,156996.44
2022-11-28T16:48:08.724Z,156988.50
2022-11-28T16:50:37.557Z,156983.19
2022-11-28T16:53:06.757Z,156987.19
2022-11-28T16:55:35.311Z,156985.81
2022-11-28T16:58:13.953Z,156977.88
2022-11-28T17:00:50.578Z,156981.88
2022-11-28T17:03:42.023Z,156976.56
2022-11-28T17:06:17.219Z,156971.25
2022-11-28T17:08:45.765Z,156979.19
2022-11-28T17:11:15.456Z,156975.22
2022-11-28T17:13:46.076Z,156971.25
2022-11-28T17:16:18.105Z,156971.25
2022-11-28T17:18:46.669Z,156972.59
2022-11-28T17:21:16.229Z,156963.28
2022-11-28T17:23:44.363Z,156960.66
2022-11-28T17:26:12.534Z,156957.97
2022-11-28T17:28:41.049Z,156976.56
2022-11-28T17:31:12.985Z,156960.66
2022-11-28T17:33:44.686Z,156950.03
2022-11-28T17:36:13.362Z,156957.97
2022-11-28T17:38:41.850Z,156968.59
2022-11-28T17:41:14.447Z,156964.59
2022-11-28T17:43:42.427Z,156963.28
2022-11-28T17:46:10.874Z,156957.97
2022-11-28T17:48:39.397Z,156955.34
2022-11-28T17:51:08.075Z,156936.78
2022-11-28T17:53:37.673Z,156950.03
2022-11-28T17:56:06.641Z,156943.41
2022-11-28T17:58:34.974Z,156948.72
2022-11-28T18:01:03.796Z,156936.78
2022-11-28T18:03:31.762Z,156954.03
2022-11-28T18:06:00.179Z,156948.72
2022-11-28T18:08:28.486Z,156951.41
2022-11-28T18:11:09.269Z,156928.81
2022-11-28T18:13:37.439Z,156952.72
2022-11-28T18:16:06.774Z,156947.41
2022-11-28T18:18:35.078Z,156943.41
2022-11-28T18:21:04.400Z,156951.41
2022-11-28T18:23:32.206Z,156940.75
2022-11-28T18:26:00.790Z,156936.78
2022-11-28T18:28:28.809Z,156946.09
2022-11-28T18:30:58.107Z,156932.81
2022-11-28T18:33:26.018Z,156923.56
2022-11-28T18:35:54.530Z,156932.81
2022-11-28T18:38:22.536Z,156922.19
2022-11-28T18:40:50.929Z,156922.19
2022-11-28T18:43:18.861Z,156915.56
2022-11-28T18:45:48.405Z,156903.66
2022-11-28T18:48:17.034Z,156910.28
2022-11-28T18:50:46.000Z,156898.34
2022-11-28T18:53:13.850Z,156897.03
2022-11-28T18:55:42.439Z,156886.41
2022-11-28T18:58:10.822Z,156874.50
2022-11-28T19:00:39.611Z,156873.16
2022-11-28T19:03:08.547Z,156870.53
2022-11-28T19:05:42.794Z,156855.94
2022-11-28T19:08:10.826Z,156866.53
2022-11-28T19:10:40.606Z,156861.25
2022-11-28T19:13:08.408Z,156825.47
2022-11-28T19:15:40.981Z,156821.47
2022-11-28T19:18:08.931Z,156818.84
2022-11-28T19:20:42.489Z,156809.53
2022-11-28T19:23:10.566Z,156806.91
2022-11-28T19:25:40.043Z,156808.22
2022-11-28T19:28:08.701Z,156788.34
2022-11-28T19:30:37.597Z,156755.22
2022-11-28T19:33:05.722Z,156772.47
2022-11-28T19:35:34.947Z,156760.50
2022-11-28T19:38:02.982Z,156761.84
2022-11-28T19:40:31.793Z,156748.63
2022-11-28T19:43:00.005Z,156748.63
2022-11-28T19:45:29.242Z,156756.56
2022-11-28T19:47:57.421Z,156757.88
2022-11-28T19:50:25.722Z,156771.16
2022-11-28T19:52:53.612Z,156776.47
2022-11-28T19:55:22.807Z,156757.88
2022-11-28T19:57:50.562Z,156748.63
2022-11-28T20:00:19.967Z,156751.25
2022-11-28T20:02:48.399Z,156748.63
2022-11-28T20:05:17.382Z,156763.19
2022-11-28T20:07:45.398Z,156755.22
2022-11-28T20:10:14.131Z,156756.56
2022-11-28T20:12:43.503Z,156756.56
2022-11-28T20:15:17.958Z,156756.56
2022-11-28T20:17:47.726Z,156753.88
2022-11-28T20:20:16.520Z,156720.81
2022-11-28T20:22:44.580Z,156742.00
2022-11-28T20:25:16.562Z,156735.38
2022-11-28T20:27:49.019Z,156722.13
2022-11-28T20:30:18.868Z,156698.25
2022-11-28T20:32:46.971Z,156685.00
2022-11-28T20:35:15.617Z,156707.56
2022-11-28T20:37:44.071Z,156710.19
2022-11-28T20:40:12.958Z,156693.00
2022-11-28T20:42:41.326Z,156687.69
2022-11-28T20:45:10.210Z,156661.19
2022-11-28T20:47:38.813Z,156693.00
2022-11-28T20:50:09.652Z,156671.78
2022-11-28T20:52:37.576Z,156670.44
2022-11-28T20:55:06.872Z,156674.44
2022-11-28T20:57:34.795Z,156678.38
2022-11-28T21:00:03.504Z,156670.44
2022-11-28T21:02:31.594Z,156678.38
2022-11-28T21:05:00.618Z,156678.38
2022-11-28T21:07:28.544Z,156679.75
2022-11-28T21:10:00.102Z,156679.75
2022-11-28T21:12:27.965Z,156661.19
2022-11-28T21:14:56.070Z,156662.50
2022-11-28T21:17:24.136Z,156661.19
2022-11-28T21:19:52.637Z,156654.56
2022-11-28T21:22:20.766Z,156649.25
2022-11-28T21:24:51.868Z,156655.88
2022-11-28T21:27:20.481Z,156650.59
2022-11-28T21:29:52.843Z,156642.63
2022-11-28T21:32:21.491Z,156659.88
2022-11-28T21:34:50.377Z,156669.13
2022-11-28T21:37:19.401Z,156651.91
2022-11-28T21:39:48.448Z,156657.19
2022-11-28T21:42:20.504Z,156666.50
2022-11-28T21:44:49.811Z,156653.25
2022-11-28T21:47:17.916Z,156659.88
2022-11-28T21:49:47.583Z,156666.50
2022-11-28T21:52:17.183Z,156662.50
2022-11-28T21:54:46.041Z,156650.59
2022-11-28T21:57:14.511Z,156645.28
2022-11-28T21:59:43.560Z,156658.53
2022-11-28T22:02:15.145Z,156671.78
2022-11-28T22:04:44.634Z,156666.50
2022-11-28T22:07:13.306Z,156653.25
2022-11-28T22:09:41.991Z,156646.63
2022-11-28T22:12:09.969Z,156669.13
2022-11-28T22:14:38.553Z,156661.19
2022-11-28T22:17:06.198Z,156658.53
2022-11-28T22:19:34.784Z,156657.19
2022-11-28T22:22:02.998Z,156658.53
2022-11-28T22:24:32.695Z,156658.53
2022-11-28T22:27:00.400Z,156670.44
2022-11-28T22:29:29.630Z,156669.13
2022-11-28T22:31:58.135Z,156669.13
2022-11-28T22:34:26.417Z,156666.50
2022-11-28T22:36:54.515Z,156647.94
2022-11-28T22:39:23.293Z,156653.25
2022-11-28T22:41:51.406Z,156671.78
2022-11-28T22:44:21.597Z,156649.25
2022-11-28T22:46:49.602Z,156659.88
2022-11-28T22:49:19.093Z,156653.25
2022-11-28T22:51:48.726Z,156665.16
2022-11-28T22:54:17.315Z,156677.06
2022-11-28T22:56:45.258Z,156675.75
2022-11-28T22:59:15.241Z,156667.81
2022-11-28T23:01:43.764Z,156673.13
2022-11-28T23:04:12.796Z,156677.06
2022-11-28T23:06:41.043Z,156662.50
2022-11-28T23:09:13.150Z,156675.75
2022-11-28T23:11:41.127Z,156666.50
2022-11-28T23:14:14.046Z,156661.19
2022-11-28T23:16:44.938Z,156653.25
2022-11-28T23:19:17.616Z,156655.88
2022-11-28T23:21:48.970Z,156665.16
2022-11-28T23:24:20.701Z,156663.81
2022-11-28T23:26:51.335Z,156649.25
2022-11-28T23:29:20.012Z,156655.88
2022-11-28T23:31:49.997Z,156661.19
2022-11-28T23:34:18.500Z,156658.53
2022-11-28T23:36:47.337Z,156669.13
2022-11-28T23:39:18.477Z,156674.44
2022-11-28T23:41:47.272Z,156674.44
2022-11-28T23:44:17.163Z,156654.56
2022-11-28T23:46:45.555Z,156659.88
2022-11-28T23:49:14.031Z,156659.88
2022-11-28T23:51:41.939Z,156662.50
2022-11-28T23:54:11.146Z,156638.66
2022-11-28T23:56:40.093Z,156677.06
2022-11-28T23:59:10.346Z,156670.44
